Time;durP1;ratioP1;P1;durP2;ratioP2;P2;SDS_P1;SDS_P2;PMS_P1;PMS_P2;Temp;Humidity;BMP_temperature;BMP_pressure;BME280_temperature;BME280_humidity;BME280_pressure;Samples;Min_cycle;Max_cycle;Signal;HPM_P1;HPM_P2
2023/04/07 00:00:18;;;;;;;8.43;3.67;;;;;;;17.58;55.89;100336.69;5029944;28;20164;-60
2023/04/07 00:02:44;;;;;;;8.77;3.70;;;;;;;17.59;55.79;100332.63;5048152;28;20160;-60
2023/04/07 00:05:09;;;;;;;6.83;3.10;;;;;;;17.59;56.10;100326.09;5068932;28;20668;-60
2023/04/07 00:07:35;;;;;;;13.00;3.83;;;;;;;17.62;55.50;100331.91;5082230;28;20264;-60
2023/04/07 00:10:00;;;;;;;9.50;3.33;;;;;;;17.65;55.71;100333.97;5048843;28;20202;-60
2023/04/07 00:12:26;;;;;;;6.70;3.17;;;;;;;17.64;55.93;100331.50;5070832;28;20175;-61
2023/04/07 00:14:51;;;;;;;9.67;3.47;;;;;;;17.61;55.97;100318.78;5072145;28;20176;-60
2023/04/07 00:17:16;;;;;;;7.93;3.30;;;;;;;17.64;55.75;100318.06;5056397;28;20200;-60
2023/04/07 00:19:42;;;;;;;8.27;3.70;;;;;;;17.59;55.81;100315.50;5052403;28;20238;-60
2023/04/07 00:22:08;;;;;;;7.13;2.90;;;;;;;17.60;55.88;100317.16;5054926;28;20183;-60
2023/04/07 00:24:33;;;;;;;5.37;3.23;;;;;;;17.58;55.85;100318.72;5052828;28;20168;-61
2023/04/07 00:26:59;;;;;;;10.63;3.30;;;;;;;17.65;55.61;100322.56;5051976;28;20182;-60
2023/04/07 00:29:25;;;;;;;6.90;3.03;;;;;;;17.64;55.71;100312.34;5066101;28;20203;-60
2023/04/07 00:31:50;;;;;;;9.47;3.07;;;;;;;17.61;56.23;100310.22;5071203;28;20643;-60
2023/04/07 00:34:16;;;;;;;9.03;4.80;;;;;;;17.56;56.23;100304.81;5064046;28;20238;-60
2023/04/07 00:36:41;;;;;;;8.93;3.27;;;;;;;17.56;56.45;100301.16;5063624;28;20175;-60
2023/04/07 00:39:07;;;;;;;5.90;3.20;;;;;;;17.57;56.06;100297.94;5053272;28;20178;-60
2023/04/07 00:41:34;;;;;;;8.37;3.00;;;;;;;17.55;56.32;100286.03;5072206;28;20292;-60
2023/04/07 00:43:59;;;;;;;7.27;3.83;;;;;;;17.54;56.27;100287.25;5068328;28;20267;-60
2023/04/07 00:46:25;;;;;;;6.70;3.10;;;;;;;17.55;56.44;100286.03;5072239;28;20421;-60
2023/04/07 00:48:50;;;;;;;6.97;3.40;;;;;;;17.55;56.18;100286.03;5068382;28;20214;-60
2023/04/07 00:51:16;;;;;;;5.80;3.30;;;;;;;17.56;56.41;100273.41;5052567;28;20179;-60
2023/04/07 00:53:41;;;;;;;6.37;2.70;;;;;;;17.57;55.86;100272.25;5034449;28;20160;-60
2023/04/07 00:56:07;;;;;;;7.97;3.87;;;;;;;17.57;56.31;100275.09;5042690;28;20281;-60
2023/04/07 00:58:32;;;;;;;7.63;3.37;;;;;;;17.55;56.61;100263.22;5051031;28;20219;-60
2023/04/07 01:01:06;;;;;;;5.80;3.00;;;;;;;17.56;56.47;100259.16;5054562;28;20186;-60
2023/04/07 01:03:34;;;;;;;6.47;3.50;;;;;;;17.55;56.39;100257.50;5049431;28;20645;-60
2023/04/07 01:06:01;;;;;;;6.07;3.10;;;;;;;17.56;56.82;100259.16;5065854;28;20437;-60
2023/04/07 01:08:34;;;;;;;6.33;3.40;;;;;;;17.55;56.64;100251.00;5057555;28;21067;-60
2023/04/07 01:11:05;;;;;;;5.50;3.07;;;;;;;17.57;56.51;100249.41;5035995;28;20641;-60
2023/04/07 01:13:37;;;;;;;6.33;3.03;;;;;;;17.53;56.27;100248.50;5045168;28;20442;-60
2023/04/07 01:16:04;;;;;;;6.47;3.30;;;;;;;17.56;56.08;100241.22;5051720;28;20450;-60
2023/04/07 01:18:34;;;;;;;7.60;4.00;;;;;;;17.54;56.68;100247.28;5018439;28;20519;-60
2023/04/07 01:21:13;;;;;;;6.43;2.73;;;;;;;17.55;56.59;100243.22;5071519;28;20522;-60
2023/04/07 01:23:48;;;;;;;4.83;2.60;;;;;;;17.51;56.54;100247.22;5054570;28;20459;-60
2023/04/07 01:26:43;;;;;;;7.47;3.23;;;;;;;17.51;56.46;100239.47;5056362;28;20533;-60
2023/04/07 01:29:18;;;;;;;7.33;3.50;;;;;;;17.49;56.20;100235.34;5020268;28;21330;-60
2023/04/07 01:31:43;;;;;;;5.00;2.53;;;;;;;17.46;56.55;100236.09;5052710;28;20438;-60
2023/04/07 01:34:09;;;;;;;6.47;3.70;;;;;;;17.44;56.49;100239.34;5042000;28;20464;-61
2023/04/07 01:36:35;;;;;;;4.80;2.70;;;;;;;17.45;56.24;100240.97;5067981;28;20205;-60
2023/04/07 01:39:00;;;;;;;6.10;3.13;;;;;;;17.46;56.45;100236.09;5050492;28;20460;-60
2023/04/07 01:41:26;;;;;;;7.13;3.10;;;;;;;17.54;56.36;100232.19;5062936;28;20167;-60
2023/04/07 01:43:51;;;;;;;9.30;3.47;;;;;;;17.53;56.40;100234.22;5041072;28;20184;-60
2023/04/07 01:46:17;;;;;;;4.53;2.50;;;;;;;17.53;56.47;100239.09;5017409;28;20188;-60
2023/04/07 01:48:42;;;;;;;6.37;2.70;;;;;;;17.50;56.34;100237.81;5067669;28;20199;-60
2023/04/07 01:51:10;;;;;;;6.80;2.60;;;;;;;17.49;56.43;100233.31;5062622;28;20202;-60
2023/04/07 01:53:36;;;;;;;6.70;2.90;;;;;;;17.50;56.33;100234.97;5037615;28;20155;-60
2023/04/07 01:56:02;;;;;;;7.70;2.87;;;;;;;17.48;56.51;100231.69;5047335;28;20564;-60
2023/04/07 01:58:28;;;;;;;8.07;3.07;;;;;;;17.49;56.32;100233.31;5051073;28;20468;-60
2023/04/07 02:00:53;;;;;;;5.83;2.80;;;;;;;17.50;56.42;100231.31;5050760;28;20884;-60
2023/04/07 02:03:23;;;;;;;5.53;2.70;;;;;;;17.52;56.06;100229.72;5053179;28;20183;-60
2023/04/07 02:05:50;;;;;;;6.50;2.70;;;;;;;17.52;56.25;100229.72;5062149;28;20174;-60
2023/04/07 02:08:17;;;;;;;7.70;3.20;;;;;;;17.52;56.63;100224.03;5046196;28;20464;-60
2023/04/07 02:10:42;;;;;;;6.77;3.20;;;;;;;17.47;56.59;100232.88;5045589;28;20456;-60
2023/04/07 02:13:09;;;;;;;7.63;3.17;;;;;;;17.47;56.54;100229.19;5050158;28;20757;-60
2023/04/07 02:15:35;;;;;;;5.83;3.00;;;;;;;17.50;56.75;100222.75;5047986;28;20259;-60
2023/04/07 02:18:01;;;;;;;5.37;2.80;;;;;;;17.51;56.90;100230.09;5049560;28;20430;-60
2023/04/07 02:20:26;;;;;;;3.70;2.37;;;;;;;17.52;56.44;100226.03;5049848;28;20406;-60
2023/04/07 02:22:53;;;;;;;6.57;3.30;;;;;;;17.49;56.60;100221.06;5052549;28;20180;-60
2023/04/07 02:25:25;;;;;;;6.67;2.83;;;;;;;17.50;56.77;100220.69;5030772;28;20183;-60
2023/04/07 02:27:51;;;;;;;6.63;2.93;;;;;;;17.50;56.60;100217.03;5069614;28;21051;-60
2023/04/07 02:30:16;;;;;;;5.93;2.83;;;;;;;17.48;56.63;100210.88;5070275;28;20421;-60
2023/04/07 02:32:41;;;;;;;6.20;2.97;;;;;;;17.50;56.66;100211.31;5053270;28;20195;-60
2023/04/07 02:35:07;;;;;;;4.90;2.73;;;;;;;17.48;56.34;100210.88;5052246;28;20202;-60
2023/04/07 02:37:32;;;;;;;6.27;2.60;;;;;;;17.47;56.45;100204.34;5066057;28;20171;-60
2023/04/07 02:39:58;;;;;;;5.10;3.00;;;;;;;17.47;56.70;100212.06;5056963;28;20180;-60
2023/04/07 02:42:24;;;;;;;5.13;2.73;;;;;;;17.49;56.57;100209.66;5060278;28;20191;-60
2023/04/07 02:44:49;;;;;;;4.63;2.87;;;;;;;17.46;56.71;100202.66;5066363;28;20233;-60
2023/04/07 02:47:15;;;;;;;4.97;2.37;;;;;;;17.50;56.56;100202.75;5055555;28;20198;-60
2023/04/07 02:49:40;;;;;;;4.47;2.50;;;;;;;17.48;57.19;100193.72;5069850;28;20310;-60
2023/04/07 02:52:06;;;;;;;5.70;2.30;;;;;;;17.45;56.93;100194.50;5068698;28;20167;-60
2023/04/07 02:54:32;;;;;;;4.63;2.63;;;;;;;17.45;56.78;100195.31;5061728;28;20631;-60
2023/04/07 02:56:57;;;;;;;5.90;3.23;;;;;;;17.44;56.86;100193.66;5049532;28;20247;-60
2023/04/07 02:59:22;;;;;;;4.87;2.53;;;;;;;17.42;56.96;100184.66;5050158;28;20540;-60
2023/04/07 03:01:48;;;;;;;7.33;2.97;;;;;;;17.41;56.99;100185.03;5051921;28;20190;-60
2023/04/07 03:04:13;;;;;;;6.30;2.30;;;;;;;17.40;56.73;100178.50;5035096;28;20163;-60
2023/04/07 03:06:39;;;;;;;5.07;2.20;;;;;;;17.40;56.83;100169.94;5066243;28;20214;-60
2023/04/07 03:09:04;;;;;;;5.23;2.70;;;;;;;17.43;56.67;100166.34;5049653;28;20196;-60
2023/04/07 03:11:30;;;;;;;5.20;2.97;;;;;;;17.43;56.67;100163.50;5055114;28;20195;-60
2023/04/07 03:13:55;;;;;;;4.43;2.47;;;;;;;17.46;56.54;100170.47;5069709;28;20171;-60
2023/04/07 03:16:21;;;;;;;5.33;2.70;;;;;;;17.48;56.34;100176.63;5069702;28;20638;-60
2023/04/07 03:18:46;;;;;;;5.97;2.70;;;;;;;17.47;56.79;100181.50;5067923;28;20220;-60
2023/04/07 03:21:12;;;;;;;4.30;2.30;;;;;;;17.46;56.43;100184.75;5049830;28;20194;-60
2023/04/07 03:23:37;;;;;;;5.00;2.77;;;;;;;17.51;56.75;100190.16;5069657;28;20181;-60
2023/04/07 03:26:03;;;;;;;5.70;2.83;;;;;;;17.52;56.46;100186.06;5065846;28;20187;-60
2023/04/07 03:28:28;;;;;;;4.87;2.67;;;;;;;17.50;56.51;100182.78;5069183;28;20199;-60
2023/04/07 03:30:54;;;;;;;5.50;2.23;;;;;;;17.46;56.46;100179.84;5069203;28;20239;-60
2023/04/07 03:33:19;;;;;;;4.20;2.57;;;;;;;17.43;56.68;100169.19;5069079;28;20167;-60
2023/04/07 03:35:45;;;;;;;3.90;2.43;;;;;;;17.45;56.60;100181.03;5052049;28;20222;-60
2023/04/07 03:38:10;;;;;;;4.80;2.60;;;;;;;17.41;56.64;100188.69;5048397;28;20183;-60
2023/04/07 03:40:36;;;;;;;5.77;2.43;;;;;;;17.42;56.85;100184.66;5059561;28;20214;-60
2023/04/07 03:43:02;;;;;;;4.27;2.43;;;;;;;17.44;56.80;100175.72;5064690;28;20546;-60
2023/04/07 03:45:27;;;;;;;6.23;2.20;;;;;;;17.46;56.76;100181.88;5067488;28;20186;-60
2023/04/07 03:47:53;;;;;;;7.27;2.60;;;;;;;17.48;56.84;100188.03;5054028;28;20573;-60
2023/04/07 03:50:18;;;;;;;5.40;2.77;;;;;;;17.46;56.72;100191.25;5053304;28;20686;-60
2023/04/07 03:52:44;;;;;;;3.90;2.10;;;;;;;17.43;56.87;100186.31;5055649;28;20590;-60
2023/04/07 03:55:09;;;;;;;4.10;2.30;;;;;;;17.46;56.81;100191.25;5035492;28;20943;-60
2023/04/07 03:57:35;;;;;;;3.43;2.03;;;;;;;17.43;56.98;100192.03;5063644;28;20182;-60
2023/04/07 04:00:00;;;;;;;4.57;2.30;;;;;;;17.42;56.93;100175.28;5072373;28;20538;-60
2023/04/07 04:02:26;;;;;;;3.90;2.60;;;;;;;17.43;57.22;100183.47;5073097;28;20280;-60
2023/04/07 04:04:51;;;;;;;6.57;2.40;;;;;;;17.44;56.83;100184.28;5074574;28;20182;-60
2023/04/07 04:07:17;;;;;;;4.67;2.73;;;;;;;17.41;57.06;100177.28;5093320;28;20260;-60
2023/04/07 04:09:42;;;;;;;4.10;2.10;;;;;;;17.44;56.61;100179.41;5075671;28;20207;-60
2023/04/07 04:12:08;;;;;;;4.43;2.60;;;;;;;17.43;56.91;100177.75;5071803;28;20195;-60
2023/04/07 04:14:33;;;;;;;5.03;2.40;;;;;;;17.44;56.96;100175.72;5071807;28;20167;-60
2023/04/07 04:16:59;;;;;;;4.80;2.17;;;;;;;17.40;56.96;100175.63;5058863;28;20203;-60
2023/04/07 04:19:25;;;;;;;5.33;2.50;;;;;;;17.43;57.02;100168.34;5051952;28;20167;-60
2023/04/07 04:21:50;;;;;;;5.17;2.50;;;;;;;17.41;56.83;100174.44;5058623;28;20191;-60
2023/04/07 04:24:16;;;;;;;5.53;2.33;;;;;;;17.42;56.40;100173.25;5052534;28;20635;-60
2023/04/07 04:26:41;;;;;;;3.73;2.30;;;;;;;17.41;56.93;100168.72;5052658;28;20249;-60
2023/04/07 04:29:06;;;;;;;5.47;2.50;;;;;;;17.39;56.95;100170.31;5051414;28;20557;-60
2023/04/07 04:31:32;;;;;;;5.63;2.70;;;;;;;17.36;56.68;100180.41;5060195;28;20579;-60
2023/04/07 04:33:58;;;;;;;3.40;1.90;;;;;;;17.40;56.73;100174.84;5051482;28;20579;-60
2023/04/07 04:36:23;;;;;;;4.17;2.67;;;;;;;17.44;56.61;100176.53;5051888;28;20167;-60
2023/04/07 04:38:48;;;;;;;5.40;2.67;;;;;;;17.45;56.73;100172.47;5053372;28;20214;-60
2023/04/07 04:41:14;;;;;;;3.93;1.97;;;;;;;17.45;56.50;100171.69;5053236;28;20164;-60
2023/04/07 04:43:40;;;;;;;5.20;2.57;;;;;;;17.47;56.36;100166.41;5061616;28;20313;-60
2023/04/07 04:46:05;;;;;;;6.00;2.40;;;;;;;17.44;56.73;100173.69;5034279;28;20662;-60
2023/04/07 04:48:31;;;;;;;4.57;2.83;;;;;;;17.44;56.82;100179.41;5052970;28;20210;-60
2023/04/07 04:50:56;;;;;;;3.87;2.10;;;;;;;17.46;56.92;100168.41;5053560;28;20179;-60
2023/04/07 04:53:21;;;;;;;4.67;1.93;;;;;;;17.44;56.50;100165.13;5052928;28;20183;-60
2023/04/07 04:55:50;;;;;;;4.93;2.37;;;;;;;17.46;56.75;100167.63;5071395;28;20231;-60
2023/04/07 04:58:17;;;;;;;4.60;2.47;;;;;;;17.44;56.59;100175.72;5054186;28;20183;-60
2023/04/07 05:00:42;;;;;;;4.20;2.10;;;;;;;17.45;56.42;100178.19;5054069;28;20946;-60
2023/04/07 05:03:08;;;;;;;3.77;1.80;;;;;;;17.43;56.93;100179.78;5051698;28;20411;-60
2023/04/07 05:05:33;;;;;;;3.97;2.20;;;;;;;17.40;56.69;100180.53;5073594;28;20193;-60
2023/04/07 05:07:59;;;;;;;4.50;2.30;;;;;;;17.42;56.93;100180.97;5052375;28;20222;-60
2023/04/07 05:10:24;;;;;;;2.80;1.90;;;;;;;17.42;57.00;100178.97;5069910;28;20232;-60
2023/04/07 05:12:50;;;;;;;5.70;2.07;;;;;;;17.45;56.61;100183.91;5057648;28;20196;-60
2023/04/07 05:15:15;;;;;;;5.40;2.20;;;;;;;17.44;56.69;100173.69;5070440;28;20522;-60
2023/04/07 05:17:41;;;;;;;5.57;2.60;;;;;;;17.43;56.91;100174.91;5066736;28;20179;-60
2023/04/07 05:20:08;;;;;;;4.07;2.20;;;;;;;17.42;57.01;100178.13;5052764;28;20187;-60
2023/04/07 05:22:34;;;;;;;4.60;2.40;;;;;;;17.44;57.20;100170.00;5068251;28;20868;-60
2023/04/07 05:24:59;;;;;;;3.70;2.07;;;;;;;17.38;56.94;100171.47;5071490;28;20417;-60
2023/04/07 05:27:25;;;;;;;3.63;2.20;;;;;;;17.40;56.94;100181.34;5070463;28;20190;-60
2023/04/07 05:29:50;;;;;;;5.40;2.33;;;;;;;17.42;57.56;100178.13;5070753;28;20214;-60
2023/04/07 05:32:17;;;;;;;4.43;2.27;;;;;;;17.40;56.91;100169.94;5057204;28;20188;-60
2023/04/07 05:34:42;;;;;;;4.10;2.20;;;;;;;17.42;56.79;100172.41;5050102;28;20233;-60
2023/04/07 05:37:08;;;;;;;3.30;2.03;;;;;;;17.38;56.74;100166.63;5034877;28;20450;-60
2023/04/07 05:39:33;;;;;;;6.00;2.57;;;;;;;17.39;56.85;100171.16;5050312;28;20228;-60
2023/04/07 05:42:00;;;;;;;3.67;1.90;;;;;;;17.40;57.00;100177.69;5058166;28;20186;-60
2023/04/07 05:44:25;;;;;;;4.83;1.80;;;;;;;17.39;56.89;100179.69;5062800;28;20283;-60
2023/04/07 05:46:51;;;;;;;3.20;1.83;;;;;;;17.40;57.17;100177.69;5070964;28;20486;-60
2023/04/07 05:49:17;;;;;;;3.60;2.13;;;;;;;17.37;57.36;100176.38;5067711;28;20210;-60
2023/04/07 05:51:42;;;;;;;3.90;2.07;;;;;;;17.41;57.28;100183.00;5071499;28;20163;-60
2023/04/07 05:54:07;;;;;;;3.07;1.73;;;;;;;17.39;56.52;100185.41;5070263;28;20643;-60
2023/04/07 05:56:33;;;;;;;4.80;2.33;;;;;;;17.36;57.02;100185.31;5068018;28;20288;-60
2023/04/07 05:59:00;;;;;;;3.03;2.10;;;;;;;17.36;57.08;100183.25;5070487;28;20178;-60
2023/04/07 06:01:26;;;;;;;3.77;2.27;;;;;;;17.36;57.16;100174.69;5044917;28;20610;-60
2023/04/07 06:03:51;;;;;;;3.23;1.80;;;;;;;17.39;56.83;100176.00;5066915;28;20426;-60
2023/04/07 06:06:17;;;;;;;3.07;1.60;;;;;;;17.41;56.75;100177.28;5086850;28;20259;-60
2023/04/07 06:08:42;;;;;;;4.00;2.27;;;;;;;17.42;56.47;100178.13;5068193;28;20207;-60
2023/04/07 06:11:08;;;;;;;3.40;1.83;;;;;;;17.47;56.58;100170.09;5070600;28;20159;-60
2023/04/07 06:13:33;;;;;;;5.30;1.60;;;;;;;17.46;56.71;100170.47;5043127;28;20729;-60
2023/04/07 06:15:58;;;;;;;3.90;2.00;;;;;;;17.47;56.36;100175.81;5058509;28;20191;-60
2023/04/07 06:18:24;;;;;;;3.80;2.03;;;;;;;17.49;56.34;100179.09;5070253;28;20607;-60
2023/04/07 06:20:49;;;;;;;5.30;2.20;;;;;;;17.51;56.54;100178.72;5070570;28;20527;-60
2023/04/07 06:23:15;;;;;;;3.53;1.90;;;;;;;17.49;56.45;100173.38;5062905;28;20187;-60
2023/04/07 06:25:40;;;;;;;3.20;1.90;;;;;;;17.53;56.73;100184.88;5052618;28;20191;-60
2023/04/07 06:28:06;;;;;;;4.87;2.50;;;;;;;17.51;56.51;100179.53;5052399;28;20210;-59
2023/04/07 06:30:31;;;;;;;2.77;1.50;;;;;;;17.43;56.81;100177.75;5067293;28;20183;-60
2023/04/07 06:32:57;;;;;;;4.33;2.10;;;;;;;17.40;56.82;100183.41;5068072;28;20179;-60
2023/04/07 06:35:25;;;;;;;4.00;2.40;;;;;;;17.44;56.54;100187.97;5072708;28;20217;-60
2023/04/07 06:37:51;;;;;;;4.57;2.17;;;;;;;17.45;57.16;100189.59;5070035;28;20191;-60
2023/04/07 06:40:16;;;;;;;3.73;1.80;;;;;;;17.47;56.98;100187.22;5055438;28;20442;-60
2023/04/07 06:42:42;;;;;;;3.10;1.70;;;;;;;17.47;56.75;100187.22;5075688;28;20191;-60
2023/04/07 06:45:08;;;;;;;3.47;2.17;;;;;;;17.47;56.96;100186.38;5071468;28;20171;-60
2023/04/07 06:47:33;;;;;;;3.60;2.00;;;;;;;17.45;56.58;100183.09;5035481;28;20213;-60
2023/04/07 06:49:59;;;;;;;3.70;1.80;;;;;;;17.45;57.12;100186.75;5075151;28;20425;-60
2023/04/07 06:52:24;;;;;;;3.83;2.07;;;;;;;17.42;57.05;100184.66;5066378;28;20218;-60
2023/04/07 06:54:50;;;;;;;5.47;2.20;;;;;;;17.42;56.82;100189.53;5069546;28;20174;-60
2023/04/07 06:57:16;;;;;;;5.47;2.37;;;;;;;17.41;57.42;100194.41;5067946;28;20179;-60
2023/04/07 06:59:41;;;;;;;3.93;2.27;;;;;;;17.42;56.61;100192.41;5071855;28;20182;-60
2023/04/07 07:02:07;;;;;;;3.63;1.90;;;;;;;17.40;57.07;100192.75;5078588;28;20184;-60
2023/04/07 07:04:35;;;;;;;4.47;2.10;;;;;;;17.43;57.08;100194.88;5074251;28;20179;-60
2023/04/07 07:07:02;;;;;;;3.70;2.20;;;;;;;17.40;56.94;100203.38;5060721;28;20230;-60
2023/04/07 07:09:27;;;;;;;4.10;2.10;;;;;;;17.44;57.22;100201.38;5073196;28;20480;-60
2023/04/07 07:11:53;;;;;;;3.73;1.80;;;;;;;17.41;57.08;100208.69;5073121;28;20429;-60
2023/04/07 07:14:18;;;;;;;5.50;2.30;;;;;;;17.37;57.11;100210.63;5066674;28;20168;-60
2023/04/07 07:16:43;;;;;;;3.93;1.77;;;;;;;17.40;57.38;100215.59;5059985;28;20183;-60
2023/04/07 07:19:09;;;;;;;2.43;1.73;;;;;;;17.43;56.91;100209.16;5045260;28;20178;-60
2023/04/07 07:21:35;;;;;;;3.23;2.00;;;;;;;17.41;56.86;100216.44;5040971;28;20178;-60
2023/04/07 07:24:00;;;;;;;3.50;2.10;;;;;;;17.40;56.76;100214.78;5057664;28;20179;-60
2023/04/07 07:26:26;;;;;;;4.83;2.90;;;;;;;17.28;55.85;100210.00;5063935;28;20206;-64
2023/04/07 07:28:52;;;;;;;5.90;3.80;;;;;;;16.90;54.38;100215.66;5068801;28;20553;-58
2023/04/07 07:31:17;;;;;;;6.67;4.60;;;;;;;16.68;54.64;100215.53;5061720;28;20183;-59
2023/04/07 07:33:44;;;;;;;8.33;5.40;;;;;;;16.64;54.81;100215.44;5031022;28;20180;-59
2023/04/07 07:36:10;;;;;;;11.33;4.67;;;;;;;16.94;53.99;100213.72;5040529;28;20692;-59
2023/04/07 07:38:35;;;;;;;7.93;5.07;;;;;;;17.27;53.51;100221.78;5034110;28;20425;-58
2023/04/07 07:41:01;;;;;;;13.70;5.20;;;;;;;17.60;54.14;100220.09;5048683;28;20172;-59
2023/04/07 07:43:26;;;;;;;9.10;4.23;;;;;;;17.82;52.79;100215.66;5046477;28;20179;-59
2023/04/07 07:45:52;;;;;;;8.67;3.53;;;;;;;18.07;52.25;100217.75;5062097;28;20187;-59
2023/04/07 07:48:17;;;;;;;6.83;3.77;;;;;;;18.23;52.04;100221.34;5033240;28;20200;-59
2023/04/07 07:50:43;;;;;;;6.80;3.73;;;;;;;18.48;51.41;100225.50;5066885;28;20163;-58
2023/04/07 07:53:09;;;;;;;8.13;2.87;;;;;;;18.42;52.14;100221.28;5045166;28;20716;-58
2023/04/07 07:55:35;;;;;;;5.67;2.73;;;;;;;18.47;52.78;100223.81;5056086;28;20728;-58
2023/04/07 07:58:00;;;;;;;8.20;3.00;;;;;;;18.61;52.21;100221.19;5043845;28;20426;-57
2023/04/07 08:00:27;;;;;;;9.33;3.20;;;;;;;18.82;52.25;100227.25;5029890;28;20227;-58
2023/04/07 08:02:52;;;;;;;7.67;3.10;;;;;;;18.82;52.43;100232.16;5059108;28;20737;-58
2023/04/07 08:05:18;;;;;;;10.63;3.53;;;;;;;18.78;52.67;100239.84;5068295;28;20413;-58
2023/04/07 08:07:43;;;;;;;7.87;3.20;;;;;;;18.67;52.79;100236.00;5056241;28;20199;-57
2023/04/07 08:10:09;;;;;;;5.47;3.00;;;;;;;18.57;53.05;100248.09;5048126;28;20175;-57
2023/04/07 08:12:34;;;;;;;9.70;4.27;;;;;;;18.48;53.01;100248.34;5062533;28;20183;-58
2023/04/07 08:15:00;;;;;;;5.00;2.90;;;;;;;18.55;53.17;100245.59;5064987;28;20175;-58
2023/04/07 08:17:25;;;;;;;6.20;2.53;;;;;;;18.53;53.08;100250.91;5066796;28;20214;-57
2023/04/07 08:19:51;;;;;;;5.60;2.70;;;;;;;18.53;53.34;100253.75;5057607;28;20191;-58
2023/04/07 08:22:18;;;;;;;4.07;2.20;;;;;;;18.55;53.23;100256.19;5036946;28;20558;-58
2023/04/07 08:24:44;;;;;;;4.07;2.67;;;;;;;18.33;53.51;100251.34;5050077;28;20184;-58
2023/04/07 08:27:09;;;;;;;6.53;2.30;;;;;;;18.19;53.91;100254.72;5047539;28;20753;-58
2023/04/07 08:29:35;;;;;;;4.67;2.60;;;;;;;18.23;53.55;100254.78;5057502;28;20679;-58
2023/04/07 08:32:00;;;;;;;6.30;2.37;;;;;;;18.22;53.80;100258.84;5065105;28;20191;-59
2023/04/07 08:34:26;;;;;;;8.10;2.83;;;;;;;18.15;53.56;100265.25;5052143;28;20462;-58
2023/04/07 08:36:51;;;;;;;8.03;2.43;;;;;;;18.19;53.28;100260.44;5039220;28;20627;-59
2023/04/07 08:39:17;;;;;;;5.50;2.63;;;;;;;18.16;53.30;100261.19;5068600;28;20179;-58
2023/04/07 08:41:44;;;;;;;5.20;3.07;;;;;;;18.10;53.54;100274.13;5069825;28;20293;-59
2023/04/07 08:44:09;;;;;;;4.47;2.10;;;;;;;18.05;53.66;100265.88;5060656;28;20864;-59
2023/04/07 08:46:35;;;;;;;6.10;2.10;;;;;;;18.01;54.05;100269.88;5068152;28;20437;-59
2023/04/07 08:49:00;;;;;;;8.93;2.80;;;;;;;18.00;54.28;100277.63;5035740;28;20203;-58
2023/04/07 08:51:28;;;;;;;3.90;2.10;;;;;;;17.99;53.96;100270.25;5036855;28;20885;-58
2023/04/07 08:53:53;;;;;;;4.53;1.90;;;;;;;17.99;54.29;100278.81;5052069;28;20172;-59
2023/04/07 08:56:20;;;;;;;5.33;2.30;;;;;;;17.97;54.25;100274.69;5033875;28;20474;-58
2023/04/07 08:58:47;;;;;;;5.00;2.17;;;;;;;17.93;54.27;100277.50;5053289;28;20210;-59
2023/04/07 09:01:12;;;;;;;4.67;1.80;;;;;;;17.94;54.23;100279.13;5047677;28;20483;-59
2023/04/07 09:03:38;;;;;;;5.10;2.07;;;;;;;17.89;54.17;100282.28;5053763;28;20397;-59
2023/04/07 09:06:03;;;;;;;7.17;2.10;;;;;;;17.92;54.60;100283.56;5067815;28;20196;-58
2023/04/07 09:08:29;;;;;;;11.77;2.30;;;;;;;17.92;54.55;100284.41;5037762;28;20199;-58
2023/04/07 09:10:55;;;;;;;5.57;2.37;;;;;;;17.95;54.31;100283.63;5069767;28;20252;-58
2023/04/07 09:13:21;;;;;;;7.97;2.43;;;;;;;17.94;54.66;100290.56;5046085;28;20674;-58
2023/04/07 09:15:46;;;;;;;4.20;2.40;;;;;;;17.92;54.22;100286.44;5060222;28;20425;-58
2023/04/07 09:18:13;;;;;;;4.80;2.20;;;;;;;17.90;54.29;100283.94;5069566;28;20527;-57
2023/04/07 09:20:58;;;;;;;3.60;2.10;;;;;;;17.89;54.58;100285.16;5054046;28;20517;-58
2023/04/07 09:23:37;;;;;;;3.53;2.10;;;;;;;17.91;54.19;100293.34;5066808;28;20982;-57
2023/04/07 09:26:21;;;;;;;4.83;2.10;;;;;;;18.15;54.18;100285.25;5052771;28;20486;-58
2023/04/07 09:28:56;;;;;;;5.40;2.17;;;;;;;18.62;52.81;100284.94;5059700;28;20844;-58
2023/04/07 09:31:22;;;;;;;3.23;2.10;;;;;;;18.80;52.34;100292.59;5061618;28;20428;-58
2023/04/07 09:33:48;;;;;;;8.90;2.43;;;;;;;19.41;51.40;100296.06;5069849;28;20766;-57
2023/04/07 09:36:14;;;;;;;7.13;2.60;;;;;;;19.93;49.94;100290.22;5070808;28;20425;-59
2023/04/07 09:38:40;;;;;;;7.10;2.47;;;;;;;20.03;49.22;100289.53;5047651;28;20990;-59
2023/04/07 09:41:07;;;;;;;7.50;2.73;;;;;;;20.15;48.67;100292.16;5063217;28;20201;-59
2023/04/07 09:43:33;;;;;;;5.40;1.97;;;;;;;20.42;48.23;100285.06;5067760;28;20183;-59
2023/04/07 09:46:08;;;;;;;6.10;2.43;;;;;;;20.83;48.14;100280.94;5033521;28;20920;-58
2023/04/07 09:48:34;;;;;;;5.50;2.80;;;;;;;21.07;47.88;100286.09;5044979;28;20477;-59
2023/04/07 09:51:10;;;;;;;4.43;2.10;;;;;;;21.23;48.00;100280.06;5066641;28;20421;-59
2023/04/07 09:53:46;;;;;;;4.03;1.93;;;;;;;21.34;47.92;100276.06;5028723;28;20281;-58
2023/04/07 09:56:12;;;;;;;5.13;2.30;;;;;;;21.27;47.89;100284.59;5063644;28;20512;-58
2023/04/07 09:58:41;;;;;;;5.50;2.23;;;;;;;21.21;47.30;100279.63;5052304;28;20445;-59
2023/04/07 10:01:08;;;;;;;4.20;2.50;;;;;;;21.18;46.58;100272.63;5038572;28;20457;-58
2023/04/07 10:03:34;;;;;;;4.40;2.47;;;;;;;21.22;46.24;100266.94;5063670;28;20454;-58
2023/04/07 10:06:00;;;;;;;4.07;2.50;;;;;;;21.28;46.64;100271.88;5057550;28;20946;-59
2023/04/07 10:08:26;;;;;;;7.77;2.60;;;;;;;21.32;46.69;100266.19;5063782;28;20527;-58
2023/04/07 10:10:52;;;;;;;6.03;2.40;;;;;;;21.48;46.82;100267.50;5051957;28;20471;-59
2023/04/07 10:13:18;;;;;;;5.90;2.33;;;;;;;21.66;46.85;100270.47;5067720;28;20450;-58
2023/04/07 10:15:43;;;;;;;7.73;2.50;;;;;;;21.82;47.22;100271.81;5065956;28;20179;-58
2023/04/07 10:18:09;;;;;;;7.83;2.70;;;;;;;21.86;46.78;100268.94;5061486;28;20234;-57
2023/04/07 10:20:34;;;;;;;9.83;2.57;;;;;;;21.93;47.08;100269.78;5068098;28;20167;-58
2023/04/07 10:23:03;;;;;;;11.50;2.73;;;;;;;21.88;47.77;100261.56;5046886;28;20197;-58
2023/04/07 10:25:29;;;;;;;7.80;2.77;;;;;;;21.54;48.73;100254.41;5034620;28;20167;-58
2023/04/07 10:27:59;;;;;;;5.80;3.27;;;;;;;21.32;50.40;100263.31;5069355;28;20422;-59
2023/04/07 10:30:27;;;;;;;9.17;3.13;;;;;;;21.27;51.25;100264.50;5045924;28;20244;-58
2023/04/07 10:32:53;;;;;;;9.07;3.17;;;;;;;21.28;51.56;100271.88;5067420;28;20440;-59
2023/04/07 10:35:19;;;;;;;8.63;3.30;;;;;;;21.39;51.37;100266.22;5057947;28;20438;-58
2023/04/07 10:38:07;;;;;;;5.93;2.63;;;;;;;21.24;51.42;100265.31;5036215;28;20189;-59
2023/04/07 10:40:33;;;;;;;8.87;3.07;;;;;;;21.11;52.21;100266.03;5062368;28;20775;-59
2023/04/07 10:42:59;;;;;;;4.63;2.53;;;;;;;20.98;52.88;100264.72;5063105;28;20999;-59
2023/04/07 10:45:58;;;;;;;4.87;2.47;;;;;;;20.84;53.11;100267.44;5063631;28;20494;-58
2023/04/07 10:48:23;;;;;;;6.70;2.37;;;;;;;20.77;53.51;100262.44;5055815;28;20499;-58
2023/04/07 10:51:04;;;;;;;9.00;3.07;;;;;;;20.67;53.74;100265.25;5053665;28;20588;-58
2023/04/07 10:53:30;;;;;;;5.43;2.37;;;;;;;20.64;54.22;100263.16;5065494;28;20233;-58
2023/04/07 10:55:56;;;;;;;7.53;2.40;;;;;;;20.56;54.42;100268.00;5070124;28;20522;-58
2023/04/07 10:58:32;;;;;;;5.00;2.67;;;;;;;20.63;54.16;100267.25;5044465;28;20438;-58
2023/04/07 11:01:06;;;;;;;5.27;2.83;;;;;;;20.54;54.55;100270.47;5031119;28;20402;-58
2023/04/07 11:03:39;;;;;;;5.33;2.50;;;;;;;20.51;54.58;100264.66;5054933;28;20412;-59
2023/04/07 11:06:12;;;;;;;4.73;2.10;;;;;;;20.43;54.75;100266.66;5045723;28;20464;-58
2023/04/07 11:08:41;;;;;;;5.33;2.00;;;;;;;20.42;54.86;100267.84;5052372;28;20470;-58
2023/04/07 11:11:11;;;;;;;3.97;2.10;;;;;;;20.34;54.94;100269.03;5049615;28;21203;-61
2023/04/07 11:13:39;;;;;;;7.83;2.07;;;;;;;20.21;55.20;100267.66;5058938;28;21174;-58
2023/04/07 11:16:05;;;;;;;7.40;2.13;;;;;;;20.13;55.96;100262.22;5049293;28;20457;-60
2023/04/07 11:18:31;;;;;;;5.30;2.03;;;;;;;20.11;55.36;100265.50;5055465;28;20480;-58
2023/04/07 11:20:59;;;;;;;4.40;2.03;;;;;;;19.99;54.50;100274.34;5049906;28;20269;-58